sensor_id;sensor_type;location;lat;lon;timestamp;P1;durP1;ratioP1;P2;durP2;ratioP2
55082;SDS011;40978;52.850;6.506;2023-02-15T00:01:06;404.48;;;54.45;;
55082;SDS011;40978;52.850;6.506;2023-02-15T00:03:33;474.80;;;60.95;;
55082;SDS011;40978;52.850;6.506;2023-02-15T00:05:58;478.35;;;64.07;;
55082;SDS011;40978;52.850;6.506;2023-02-15T00:08:24;202.55;;;36.75;;
55082;SDS011;40978;52.850;6.506;2023-02-15T00:10:50;304.35;;;44.85;;
55082;SDS011;40978;52.850;6.506;2023-02-15T00:13:16;443.75;;;59.88;;
55082;SDS011;40978;52.850;6.506;2023-02-15T00:15:41;160.82;;;35.28;;
55082;SDS011;40978;52.850;6.506;2023-02-15T00:18:07;563.30;;;68.80;;
55082;SDS011;40978;52.850;6.506;2023-02-15T00:20:33;107.53;;;29.17;;
55082;SDS011;40978;52.850;6.506;2023-02-15T00:22:58;688.90;;;84.47;;
55082;SDS011;40978;52.850;6.506;2023-02-15T00:25:24;527.53;;;70.47;;
55082;SDS011;40978;52.850;6.506;2023-02-15T00:27:50;313.33;;;47.30;;
55082;SDS011;40978;52.850;6.506;2023-02-15T00:30:16;356.92;;;53.20;;
55082;SDS011;40978;52.850;6.506;2023-02-15T00:32:42;188.05;;;40.90;;
55082;SDS011;40978;52.850;6.506;2023-02-15T00:35:07;29.63;;;23.50;;
55082;SDS011;40978;52.850;6.506;2023-02-15T00:37:34;31.75;;;24.58;;
55082;SDS011;40978;52.850;6.506;2023-02-15T00:40:00;607.75;;;77.85;;
55082;SDS011;40978;52.850;6.506;2023-02-15T00:42:26;85.53;;;31.65;;
55082;SDS011;40978;52.850;6.506;2023-02-15T00:44:51;48.92;;;27.17;;
55082;SDS011;40978;52.850;6.506;2023-02-15T00:47:17;37.40;;;25.33;;
55082;SDS011;40978;52.850;6.506;2023-02-15T00:49:43;44.88;;;26.63;;
55082;SDS011;40978;52.850;6.506;2023-02-15T00:52:09;27.83;;;21.88;;
55082;SDS011;40978;52.850;6.506;2023-02-15T00:54:34;31.27;;;22.17;;
55082;SDS011;40978;52.850;6.506;2023-02-15T00:57:00;31.05;;;22.48;;
55082;SDS011;40978;52.850;6.506;2023-02-15T00:59:26;31.52;;;23.50;;
55082;SDS011;40978;52.850;6.506;2023-02-15T01:01:52;33.00;;;24.13;;
55082;SDS011;40978;52.850;6.506;2023-02-15T01:04:17;30.83;;;24.30;;
55082;SDS011;40978;52.850;6.506;2023-02-15T01:06:43;25.15;;;20.67;;
55082;SDS011;40978;52.850;6.506;2023-02-15T01:09:09;24.38;;;20.63;;
55082;SDS011;40978;52.850;6.506;2023-02-15T01:11:34;29.25;;;24.17;;
55082;SDS011;40978;52.850;6.506;2023-02-15T01:14:00;32.38;;;23.63;;
55082;SDS011;40978;52.850;6.506;2023-02-15T01:16:28;36.38;;;24.45;;
55082;SDS011;40978;52.850;6.506;2023-02-15T01:18:54;31.77;;;24.25;;
55082;SDS011;40978;52.850;6.506;2023-02-15T01:21:21;30.17;;;24.05;;
55082;SDS011;40978;52.850;6.506;2023-02-15T01:23:48;25.75;;;22.40;;
55082;SDS011;40978;52.850;6.506;2023-02-15T01:26:14;26.67;;;22.42;;
55082;SDS011;40978;52.850;6.506;2023-02-15T01:28:40;26.45;;;21.90;;
55082;SDS011;40978;52.850;6.506;2023-02-15T01:31:10;22.58;;;20.17;;
55082;SDS011;40978;52.850;6.506;2023-02-15T01:33:37;22.58;;;19.38;;
55082;SDS011;40978;52.850;6.506;2023-02-15T01:36:03;24.80;;;21.02;;
55082;SDS011;40978;52.850;6.506;2023-02-15T01:38:30;22.10;;;19.75;;
55082;SDS011;40978;52.850;6.506;2023-02-15T01:40:55;21.88;;;19.42;;
55082;SDS011;40978;52.850;6.506;2023-02-15T01:43:44;24.20;;;19.93;;
55082;SDS011;40978;52.850;6.506;2023-02-15T01:46:33;25.85;;;21.30;;
55082;SDS011;40978;52.850;6.506;2023-02-15T01:49:05;38.55;;;23.30;;
55082;SDS011;40978;52.850;6.506;2023-02-15T01:51:41;46.65;;;24.50;;
55082;SDS011;40978;52.850;6.506;2023-02-15T01:54:16;73.22;;;29.27;;
55082;SDS011;40978;52.850;6.506;2023-02-15T01:56:43;64.78;;;26.92;;
55082;SDS011;40978;52.850;6.506;2023-02-15T01:59:09;56.65;;;27.83;;
55082;SDS011;40978;52.850;6.506;2023-02-15T02:01:40;263.83;;;46.15;;
55082;SDS011;40978;52.850;6.506;2023-02-15T02:04:15;61.65;;;28.25;;
55082;SDS011;40978;52.850;6.506;2023-02-15T02:06:46;175.75;;;40.13;;
55082;SDS011;40978;52.850;6.506;2023-02-15T02:09:13;160.18;;;39.20;;
55082;SDS011;40978;52.850;6.506;2023-02-15T02:11:39;152.45;;;39.83;;
55082;SDS011;40978;52.850;6.506;2023-02-15T02:14:06;221.82;;;41.97;;
55082;SDS011;40978;52.850;6.506;2023-02-15T02:22:23;104.13;;;32.20;;
55082;SDS011;40978;52.850;6.506;2023-02-15T02:33:12;75.78;;;29.33;;
55082;SDS011;40978;52.850;6.506;2023-02-15T02:41:52;46.78;;;28.77;;
55082;SDS011;40978;52.850;6.506;2023-02-15T02:44:23;68.35;;;32.10;;
55082;SDS011;40978;52.850;6.506;2023-02-15T02:51:58;395.17;;;55.97;;
55082;SDS011;40978;52.850;6.506;2023-02-15T02:54:25;139.65;;;37.88;;
55082;SDS011;40978;52.850;6.506;2023-02-15T02:56:51;151.23;;;40.08;;
55082;SDS011;40978;52.850;6.506;2023-02-15T02:59:23;282.15;;;51.00;;
55082;SDS011;40978;52.850;6.506;2023-02-15T03:01:55;217.75;;;45.65;;
55082;SDS011;40978;52.850;6.506;2023-02-15T03:04:38;205.85;;;44.05;;
55082;SDS011;40978;52.850;6.506;2023-02-15T03:07:10;62.80;;;33.22;;
55082;SDS011;40978;52.850;6.506;2023-02-15T03:09:41;45.38;;;29.10;;
55082;SDS011;40978;52.850;6.506;2023-02-15T03:12:11;49.75;;;30.77;;
55082;SDS011;40978;52.850;6.506;2023-02-15T03:15:08;55.25;;;31.50;;
55082;SDS011;40978;52.850;6.506;2023-02-15T03:17:36;69.85;;;32.65;;
55082;SDS011;40978;52.850;6.506;2023-02-15T03:20:13;56.50;;;32.95;;
55082;SDS011;40978;52.850;6.506;2023-02-15T03:22:49;51.35;;;32.30;;
55082;SDS011;40978;52.850;6.506;2023-02-15T03:25:22;231.15;;;45.25;;
55082;SDS011;40978;52.850;6.506;2023-02-15T03:27:56;148.30;;;36.05;;
55082;SDS011;40978;52.850;6.506;2023-02-15T03:30:26;174.82;;;34.13;;
55082;SDS011;40978;52.850;6.506;2023-02-15T03:32:55;182.30;;;35.22;;
55082;SDS011;40978;52.850;6.506;2023-02-15T03:35:24;286.17;;;46.50;;
55082;SDS011;40978;52.850;6.506;2023-02-15T03:37:59;113.22;;;35.67;;
55082;SDS011;40978;52.850;6.506;2023-02-15T03:40:30;153.07;;;36.90;;
55082;SDS011;40978;52.850;6.506;2023-02-15T03:51:32;179.80;;;36.58;;
55082;SDS011;40978;52.850;6.506;2023-02-15T03:57:08;162.88;;;33.33;;
55082;SDS011;40978;52.850;6.506;2023-02-15T04:00:00;136.90;;;35.40;;
55082;SDS011;40978;52.850;6.506;2023-02-15T04:05:18;197.43;;;43.22;;
55082;SDS011;40978;52.850;6.506;2023-02-15T04:07:44;260.60;;;49.45;;
55082;SDS011;40978;52.850;6.506;2023-02-15T04:10:09;164.55;;;38.60;;
55082;SDS011;40978;52.850;6.506;2023-02-15T04:12:54;103.43;;;34.93;;
55082;SDS011;40978;52.850;6.506;2023-02-15T04:15:19;103.60;;;33.67;;
55082;SDS011;40978;52.850;6.506;2023-02-15T04:18:04;144.13;;;38.53;;
55082;SDS011;40978;52.850;6.506;2023-02-15T04:20:29;68.78;;;33.47;;
55082;SDS011;40978;52.850;6.506;2023-02-15T04:23:14;191.60;;;42.73;;
55082;SDS011;40978;52.850;6.506;2023-02-15T04:25:58;157.20;;;40.50;;
55082;SDS011;40978;52.850;6.506;2023-02-15T04:28:24;311.80;;;54.10;;
55082;SDS011;40978;52.850;6.506;2023-02-15T04:30:49;251.57;;;50.03;;
55082;SDS011;40978;52.850;6.506;2023-02-15T04:33:16;271.75;;;50.22;;
55082;SDS011;40978;52.850;6.506;2023-02-15T04:35:57;239.90;;;47.67;;
55082;SDS011;40978;52.850;6.506;2023-02-15T04:38:38;298.13;;;53.42;;
55082;SDS011;40978;52.850;6.506;2023-02-15T04:41:14;251.15;;;50.33;;
55082;SDS011;40978;52.850;6.506;2023-02-15T04:43:40;347.98;;;55.05;;
55082;SDS011;40978;52.850;6.506;2023-02-15T04:46:06;409.13;;;65.30;;
55082;SDS011;40978;52.850;6.506;2023-02-15T04:48:32;286.67;;;58.00;;
55082;SDS011;40978;52.850;6.506;2023-02-15T04:50:57;328.20;;;62.05;;
55082;SDS011;40978;52.850;6.506;2023-02-15T04:53:23;375.40;;;68.53;;
55082;SDS011;40978;52.850;6.506;2023-02-15T04:55:49;277.80;;;57.38;;
55082;SDS011;40978;52.850;6.506;2023-02-15T04:58:14;80.70;;;38.13;;
55082;SDS011;40978;52.850;6.506;2023-02-15T05:00:40;75.90;;;37.63;;
55082;SDS011;40978;52.850;6.506;2023-02-15T05:03:06;83.78;;;38.78;;
55082;SDS011;40978;52.850;6.506;2023-02-15T05:05:31;105.32;;;40.85;;
55082;SDS011;40978;52.850;6.506;2023-02-15T05:07:57;153.80;;;46.67;;
55082;SDS011;40978;52.850;6.506;2023-02-15T05:10:23;67.72;;;37.47;;
55082;SDS011;40978;52.850;6.506;2023-02-15T05:12:49;48.17;;;35.80;;
55082;SDS011;40978;52.850;6.506;2023-02-15T05:15:14;61.92;;;35.72;;
55082;SDS011;40978;52.850;6.506;2023-02-15T05:17:40;114.20;;;43.13;;
55082;SDS011;40978;52.850;6.506;2023-02-15T05:20:06;88.60;;;41.25;;
55082;SDS011;40978;52.850;6.506;2023-02-15T05:22:32;81.65;;;41.10;;
55082;SDS011;40978;52.850;6.506;2023-02-15T05:24:57;76.28;;;36.95;;
55082;SDS011;40978;52.850;6.506;2023-02-15T05:27:42;146.90;;;43.42;;
55082;SDS011;40978;52.850;6.506;2023-02-15T05:30:26;126.95;;;44.55;;
55082;SDS011;40978;52.850;6.506;2023-02-15T05:32:52;55.90;;;36.00;;
55082;SDS011;40978;52.850;6.506;2023-02-15T05:35:18;84.50;;;41.63;;
55082;SDS011;40978;52.850;6.506;2023-02-15T05:37:43;62.17;;;38.38;;
55082;SDS011;40978;52.850;6.506;2023-02-15T05:40:09;44.53;;;34.15;;
55082;SDS011;40978;52.850;6.506;2023-02-15T05:42:35;54.83;;;35.65;;
55082;SDS011;40978;52.850;6.506;2023-02-15T05:45:01;124.57;;;47.05;;
55082;SDS011;40978;52.850;6.506;2023-02-15T05:47:28;157.05;;;51.55;;
55082;SDS011;40978;52.850;6.506;2023-02-15T05:49:54;85.97;;;39.25;;
55082;SDS011;40978;52.850;6.506;2023-02-15T05:52:20;142.65;;;45.05;;
55082;SDS011;40978;52.850;6.506;2023-02-15T05:54:46;59.60;;;37.85;;
55082;SDS011;40978;52.850;6.506;2023-02-15T05:57:12;254.35;;;55.40;;
55082;SDS011;40978;52.850;6.506;2023-02-15T05:59:38;57.10;;;37.55;;
55082;SDS011;40978;52.850;6.506;2023-02-15T06:02:03;172.57;;;45.70;;
55082;SDS011;40978;52.850;6.506;2023-02-15T06:04:31;221.88;;;49.65;;
55082;SDS011;40978;52.850;6.506;2023-02-15T06:06:57;286.85;;;61.35;;
55082;SDS011;40978;52.850;6.506;2023-02-15T06:09:22;239.43;;;55.67;;
55082;SDS011;40978;52.850;6.506;2023-02-15T06:11:48;170.27;;;49.33;;
55082;SDS011;40978;52.850;6.506;2023-02-15T06:14:14;99.43;;;41.75;;
55082;SDS011;40978;52.850;6.506;2023-02-15T06:16:40;100.03;;;44.72;;
55082;SDS011;40978;52.850;6.506;2023-02-15T06:19:06;81.80;;;41.55;;
55082;SDS011;40978;52.850;6.506;2023-02-15T06:21:31;95.40;;;44.50;;
55082;SDS011;40978;52.850;6.506;2023-02-15T06:23:57;80.53;;;41.75;;
55082;SDS011;40978;52.850;6.506;2023-02-15T06:26:23;78.38;;;42.78;;
55082;SDS011;40978;52.850;6.506;2023-02-15T06:28:49;63.10;;;39.38;;
55082;SDS011;40978;52.850;6.506;2023-02-15T06:31:14;62.08;;;37.85;;
55082;SDS011;40978;52.850;6.506;2023-02-15T06:33:40;72.88;;;41.80;;
55082;SDS011;40978;52.850;6.506;2023-02-15T06:36:06;72.25;;;41.17;;
55082;SDS011;40978;52.850;6.506;2023-02-15T06:38:32;85.68;;;45.97;;
55082;SDS011;40978;52.850;6.506;2023-02-15T06:40:58;73.95;;;41.85;;
55082;SDS011;40978;52.850;6.506;2023-02-15T06:43:23;70.82;;;40.45;;
55082;SDS011;40978;52.850;6.506;2023-02-15T06:45:49;68.88;;;40.17;;
55082;SDS011;40978;52.850;6.506;2023-02-15T06:48:15;73.53;;;41.10;;
55082;SDS011;40978;52.850;6.506;2023-02-15T06:50:41;75.78;;;41.95;;
55082;SDS011;40978;52.850;6.506;2023-02-15T06:53:06;74.18;;;41.30;;
55082;SDS011;40978;52.850;6.506;2023-02-15T06:55:32;79.20;;;43.45;;
55082;SDS011;40978;52.850;6.506;2023-02-15T06:57:58;63.97;;;38.38;;
55082;SDS011;40978;52.850;6.506;2023-02-15T07:00:24;64.68;;;39.53;;
55082;SDS011;40978;52.850;6.506;2023-02-15T07:02:53;81.25;;;42.13;;
55082;SDS011;40978;52.850;6.506;2023-02-15T07:05:23;79.97;;;42.60;;
55082;SDS011;40978;52.850;6.506;2023-02-15T07:07:50;70.10;;;40.67;;
55082;SDS011;40978;52.850;6.506;2023-02-15T07:10:15;67.95;;;39.65;;
55082;SDS011;40978;52.850;6.506;2023-02-15T07:12:41;75.15;;;42.55;;
55082;SDS011;40978;52.850;6.506;2023-02-15T07:15:11;90.90;;;43.92;;
55082;SDS011;40978;52.850;6.506;2023-02-15T07:17:41;63.45;;;39.05;;
55082;SDS011;40978;52.850;6.506;2023-02-15T07:20:18;82.28;;;41.45;;
55082;SDS011;40978;52.850;6.506;2023-02-15T07:22:46;81.70;;;43.45;;
55082;SDS011;40978;52.850;6.506;2023-02-15T07:25:12;71.75;;;41.88;;
55082;SDS011;40978;52.850;6.506;2023-02-15T07:27:39;74.28;;;41.13;;
55082;SDS011;40978;52.850;6.506;2023-02-15T07:30:06;74.47;;;41.45;;
55082;SDS011;40978;52.850;6.506;2023-02-15T07:32:34;81.38;;;46.58;;
55082;SDS011;40978;52.850;6.506;2023-02-15T07:35:00;76.97;;;41.13;;
55082;SDS011;40978;52.850;6.506;2023-02-15T07:37:26;75.95;;;42.45;;
55082;SDS011;40978;52.850;6.506;2023-02-15T07:39:52;81.38;;;43.35;;
55082;SDS011;40978;52.850;6.506;2023-02-15T07:42:17;82.35;;;43.05;;
55082;SDS011;40978;52.850;6.506;2023-02-15T07:44:44;70.65;;;41.13;;
55082;SDS011;40978;52.850;6.506;2023-02-15T07:47:10;81.32;;;45.25;;
55082;SDS011;40978;52.850;6.506;2023-02-15T07:49:37;85.15;;;47.38;;
55082;SDS011;40978;52.850;6.506;2023-02-15T07:52:03;81.57;;;45.70;;
55082;SDS011;40978;52.850;6.506;2023-02-15T07:54:29;67.60;;;41.35;;
55082;SDS011;40978;52.850;6.506;2023-02-15T07:56:55;68.05;;;42.47;;
55082;SDS011;40978;52.850;6.506;2023-02-15T07:59:20;56.15;;;38.08;;
55082;SDS011;40978;52.850;6.506;2023-02-15T08:01:46;46.33;;;34.28;;
55082;SDS011;40978;52.850;6.506;2023-02-15T08:04:12;40.90;;;30.45;;
55082;SDS011;40978;52.850;6.506;2023-02-15T08:06:38;39.25;;;29.77;;
55082;SDS011;40978;52.850;6.506;2023-02-15T08:09:04;42.72;;;30.92;;
55082;SDS011;40978;52.850;6.506;2023-02-15T08:11:32;37.53;;;28.00;;
55082;SDS011;40978;52.850;6.506;2023-02-15T08:16:33;35.65;;;28.20;;
55082;SDS011;40978;52.850;6.506;2023-02-15T08:19:03;35.50;;;26.80;;
55082;SDS011;40978;52.850;6.506;2023-02-15T08:21:37;31.67;;;26.67;;
55082;SDS011;40978;52.850;6.506;2023-02-15T08:24:05;34.95;;;27.63;;
55082;SDS011;40978;52.850;6.506;2023-02-15T08:26:33;34.17;;;27.38;;
55082;SDS011;40978;52.850;6.506;2023-02-15T08:28:59;35.80;;;28.48;;
55082;SDS011;40978;52.850;6.506;2023-02-15T08:31:26;35.13;;;28.48;;
55082;SDS011;40978;52.850;6.506;2023-02-15T08:33:52;34.00;;;26.88;;
55082;SDS011;40978;52.850;6.506;2023-02-15T08:36:20;34.90;;;28.48;;
55082;SDS011;40978;52.850;6.506;2023-02-15T08:38:48;32.88;;;26.52;;
55082;SDS011;40978;52.850;6.506;2023-02-15T08:43:47;34.10;;;26.85;;
55082;SDS011;40978;52.850;6.506;2023-02-15T08:46:16;31.35;;;27.60;;
55082;SDS011;40978;52.850;6.506;2023-02-15T08:48:42;32.70;;;27.25;;
55082;SDS011;40978;52.850;6.506;2023-02-15T08:51:09;33.15;;;27.50;;
55082;SDS011;40978;52.850;6.506;2023-02-15T08:53:41;32.47;;;27.80;;
55082;SDS011;40978;52.850;6.506;2023-02-15T08:56:09;30.77;;;26.48;;
55082;SDS011;40978;52.850;6.506;2023-02-15T08:58:35;32.92;;;28.40;;
55082;SDS011;40978;52.850;6.506;2023-02-15T09:01:07;33.30;;;27.77;;
55082;SDS011;40978;52.850;6.506;2023-02-15T09:03:37;33.13;;;28.27;;
55082;SDS011;40978;52.850;6.506;2023-02-15T09:06:03;34.45;;;28.38;;
55082;SDS011;40978;52.850;6.506;2023-02-15T09:08:29;34.00;;;29.27;;
55082;SDS011;40978;52.850;6.506;2023-02-15T09:11:04;32.65;;;27.95;;
55082;SDS011;40978;52.850;6.506;2023-02-15T09:13:36;31.77;;;26.73;;
55082;SDS011;40978;52.850;6.506;2023-02-15T09:16:05;33.17;;;27.52;;
55082;SDS011;40978;52.850;6.506;2023-02-15T09:18:33;33.42;;;28.05;;
55082;SDS011;40978;52.850;6.506;2023-02-15T09:21:21;35.78;;;27.77;;
55082;SDS011;40978;52.850;6.506;2023-02-15T09:23:49;34.85;;;28.80;;
55082;SDS011;40978;52.850;6.506;2023-02-15T09:26:18;32.55;;;28.58;;
55082;SDS011;40978;52.850;6.506;2023-02-15T09:28:45;33.08;;;29.55;;
55082;SDS011;40978;52.850;6.506;2023-02-15T09:31:15;30.27;;;26.90;;
55082;SDS011;40978;52.850;6.506;2023-02-15T09:33:43;32.10;;;28.58;;
55082;SDS011;40978;52.850;6.506;2023-02-15T09:36:23;32.88;;;28.42;;
55082;SDS011;40978;52.850;6.506;2023-02-15T09:38:55;32.88;;;29.25;;
55082;SDS011;40978;52.850;6.506;2023-02-15T09:50:21;32.25;;;28.77;;
55082;SDS011;40978;52.850;6.506;2023-02-15T09:56:00;33.58;;;29.98;;
55082;SDS011;40978;52.850;6.506;2023-02-15T09:58:37;32.50;;;29.02;;
55082;SDS011;40978;52.850;6.506;2023-02-15T10:15:44;33.55;;;29.92;;
55082;SDS011;40978;52.850;6.506;2023-02-15T10:26:44;33.95;;;30.38;;
55082;SDS011;40978;52.850;6.506;2023-02-15T10:31:47;34.90;;;31.40;;
55082;SDS011;40978;52.850;6.506;2023-02-15T10:34:17;37.17;;;33.33;;
55082;SDS011;40978;52.850;6.506;2023-02-15T11:00:45;35.35;;;31.48;;
55082;SDS011;40978;52.850;6.506;2023-02-15T11:08:28;37.30;;;31.92;;
55082;SDS011;40978;52.850;6.506;2023-02-15T11:10:58;36.72;;;32.72;;
55082;SDS011;40978;52.850;6.506;2023-02-15T11:13:29;36.03;;;31.85;;
55082;SDS011;40978;52.850;6.506;2023-02-15T11:16:03;35.22;;;31.48;;
55082;SDS011;40978;52.850;6.506;2023-02-15T11:19:02;36.33;;;32.50;;
55082;SDS011;40978;52.850;6.506;2023-02-15T11:21:42;38.58;;;33.15;;
55082;SDS011;40978;52.850;6.506;2023-02-15T11:24:15;36.88;;;32.67;;
55082;SDS011;40978;52.850;6.506;2023-02-15T11:26:44;35.67;;;31.20;;
55082;SDS011;40978;52.850;6.506;2023-02-15T11:32:01;36.25;;;32.42;;
55082;SDS011;40978;52.850;6.506;2023-02-15T11:37:44;36.72;;;32.83;;
55082;SDS011;40978;52.850;6.506;2023-02-15T11:43:23;35.55;;;31.75;;
55082;SDS011;40978;52.850;6.506;2023-02-15T11:45:53;34.55;;;30.75;;
55082;SDS011;40978;52.850;6.506;2023-02-15T11:48:19;35.63;;;31.75;;
55082;SDS011;40978;52.850;6.506;2023-02-15T11:50:45;35.92;;;32.08;;
55082;SDS011;40978;52.850;6.506;2023-02-15T11:53:21;34.90;;;31.13;;
55082;SDS011;40978;52.850;6.506;2023-02-15T11:55:52;37.10;;;32.88;;
55082;SDS011;40978;52.850;6.506;2023-02-15T12:01:24;35.65;;;31.30;;
55082;SDS011;40978;52.850;6.506;2023-02-15T12:06:57;39.92;;;33.22;;
55082;SDS011;40978;52.850;6.506;2023-02-15T12:09:34;37.25;;;32.88;;
55082;SDS011;40978;52.850;6.506;2023-02-15T12:12:22;35.25;;;30.77;;
55082;SDS011;40978;52.850;6.506;2023-02-15T12:14:53;36.33;;;31.52;;
55082;SDS011;40978;52.850;6.506;2023-02-15T12:17:21;38.63;;;32.50;;
55082;SDS011;40978;52.850;6.506;2023-02-15T12:19:53;35.28;;;30.67;;
55082;SDS011;40978;52.850;6.506;2023-02-15T12:22:26;38.05;;;31.40;;
55082;SDS011;40978;52.850;6.506;2023-02-15T12:24:55;41.90;;;33.28;;
55082;SDS011;40978;52.850;6.506;2023-02-15T12:27:29;42.15;;;32.75;;
55082;SDS011;40978;52.850;6.506;2023-02-15T12:32:36;43.67;;;31.15;;
55082;SDS011;40978;52.850;6.506;2023-02-15T12:35:27;38.40;;;29.00;;
55082;SDS011;40978;52.850;6.506;2023-02-15T12:37:54;35.95;;;29.17;;
55082;SDS011;40978;52.850;6.506;2023-02-15T12:40:26;37.88;;;30.30;;
55082;SDS011;40978;52.850;6.506;2023-02-15T12:42:56;41.35;;;31.00;;
55082;SDS011;40978;52.850;6.506;2023-02-15T12:50:37;40.80;;;30.25;;
55082;SDS011;40978;52.850;6.506;2023-02-15T12:53:30;41.88;;;29.70;;
55082;SDS011;40978;52.850;6.506;2023-02-15T12:55:59;40.78;;;29.50;;
55082;SDS011;40978;52.850;6.506;2023-02-15T12:58:27;40.65;;;30.48;;
55082;SDS011;40978;52.850;6.506;2023-02-15T13:03:38;40.90;;;29.77;;
55082;SDS011;40978;52.850;6.506;2023-02-15T13:06:19;39.15;;;29.02;;
55082;SDS011;40978;52.850;6.506;2023-02-15T13:08:47;40.33;;;30.90;;
55082;SDS011;40978;52.850;6.506;2023-02-15T13:11:28;39.78;;;31.80;;
55082;SDS011;40978;52.850;6.506;2023-02-15T13:14:18;39.47;;;29.85;;
55082;SDS011;40978;52.850;6.506;2023-02-15T13:16:45;36.80;;;29.23;;
55082;SDS011;40978;52.850;6.506;2023-02-15T13:19:18;39.67;;;30.77;;
55082;SDS011;40978;52.850;6.506;2023-02-15T13:21:50;38.63;;;29.00;;
55082;SDS011;40978;52.850;6.506;2023-02-15T13:24:22;40.17;;;31.10;;
55082;SDS011;40978;52.850;6.506;2023-02-15T13:26:50;40.83;;;30.08;;
55082;SDS011;40978;52.850;6.506;2023-02-15T13:29:29;39.80;;;30.17;;
55082;SDS011;40978;52.850;6.506;2023-02-15T13:32:00;43.08;;;31.52;;
55082;SDS011;40978;52.850;6.506;2023-02-15T13:34:33;42.25;;;30.70;;
55082;SDS011;40978;52.850;6.506;2023-02-15T13:37:06;39.47;;;28.90;;
55082;SDS011;40978;52.850;6.506;2023-02-15T13:42:41;38.83;;;30.58;;
55082;SDS011;40978;52.850;6.506;2023-02-15T13:59:24;40.22;;;29.13;;
55082;SDS011;40978;52.850;6.506;2023-02-15T14:05:34;38.20;;;27.17;;
55082;SDS011;40978;52.850;6.506;2023-02-15T14:15:49;37.67;;;28.13;;
55082;SDS011;40978;52.850;6.506;2023-02-15T14:21:06;40.40;;;28.23;;
55082;SDS011;40978;52.850;6.506;2023-02-15T14:24:07;38.60;;;27.40;;
55082;SDS011;40978;52.850;6.506;2023-02-15T14:29:57;39.20;;;27.80;;
55082;SDS011;40978;52.850;6.506;2023-02-15T14:32:45;35.60;;;27.17;;
55082;SDS011;40978;52.850;6.506;2023-02-15T14:35:18;35.70;;;27.10;;
55082;SDS011;40978;52.850;6.506;2023-02-15T14:48:46;38.05;;;26.67;;
55082;SDS011;40978;52.850;6.506;2023-02-15T14:54:43;36.83;;;27.00;;
55082;SDS011;40978;52.850;6.506;2023-02-15T15:02:40;35.50;;;25.75;;
55082;SDS011;40978;52.850;6.506;2023-02-15T15:05:29;33.88;;;25.58;;
55082;SDS011;40978;52.850;6.506;2023-02-15T15:08:01;34.60;;;26.23;;
55082;SDS011;40978;52.850;6.506;2023-02-15T15:13:34;38.08;;;26.27;;
55082;SDS011;40978;52.850;6.506;2023-02-15T15:16:01;34.83;;;25.13;;
55082;SDS011;40978;52.850;6.506;2023-02-15T15:18:49;37.13;;;26.55;;
55082;SDS011;40978;52.850;6.506;2023-02-15T15:35:24;35.75;;;26.08;;
55082;SDS011;40978;52.850;6.506;2023-02-15T15:45:43;35.90;;;26.23;;
55082;SDS011;40978;52.850;6.506;2023-02-15T15:48:30;35.70;;;25.73;;
55082;SDS011;40978;52.850;6.506;2023-02-15T15:51:02;34.63;;;25.90;;
55082;SDS011;40978;52.850;6.506;2023-02-15T15:53:33;35.78;;;26.48;;
55082;SDS011;40978;52.850;6.506;2023-02-15T15:56:06;37.47;;;25.90;;
55082;SDS011;40978;52.850;6.506;2023-02-15T15:58:36;34.85;;;25.95;;
55082;SDS011;40978;52.850;6.506;2023-02-15T16:01:11;37.15;;;26.95;;
55082;SDS011;40978;52.850;6.506;2023-02-15T16:03:38;37.35;;;26.90;;
55082;SDS011;40978;52.850;6.506;2023-02-15T16:06:25;39.28;;;25.95;;
55082;SDS011;40978;52.850;6.506;2023-02-15T16:08:52;39.85;;;27.55;;
55082;SDS011;40978;52.850;6.506;2023-02-15T16:11:19;35.97;;;26.45;;
55082;SDS011;40978;52.850;6.506;2023-02-15T16:13:48;39.92;;;28.23;;
55082;SDS011;40978;52.850;6.506;2023-02-15T16:16:19;41.55;;;28.67;;
55082;SDS011;40978;52.850;6.506;2023-02-15T16:18:52;39.08;;;27.63;;
55082;SDS011;40978;52.850;6.506;2023-02-15T16:21:28;37.25;;;26.83;;
55082;SDS011;40978;52.850;6.506;2023-02-15T16:27:00;36.65;;;26.40;;
55082;SDS011;40978;52.850;6.506;2023-02-15T16:29:55;38.45;;;26.40;;
55082;SDS011;40978;52.850;6.506;2023-02-15T16:32:24;37.00;;;26.17;;
55082;SDS011;40978;52.850;6.506;2023-02-15T16:34:52;37.63;;;25.52;;
55082;SDS011;40978;52.850;6.506;2023-02-15T16:37:21;38.80;;;26.88;;
55082;SDS011;40978;52.850;6.506;2023-02-15T16:39:51;39.88;;;27.08;;
55082;SDS011;40978;52.850;6.506;2023-02-15T16:42:17;43.90;;;28.20;;
55082;SDS011;40978;52.850;6.506;2023-02-15T16:44:45;41.08;;;27.77;;
55082;SDS011;40978;52.850;6.506;2023-02-15T16:47:33;41.17;;;26.50;;
55082;SDS011;40978;52.850;6.506;2023-02-15T16:52:59;41.15;;;27.85;;
55082;SDS011;40978;52.850;6.506;2023-02-15T16:55:38;37.80;;;26.30;;
55082;SDS011;40978;52.850;6.506;2023-02-15T16:58:16;36.75;;;27.05;;
55082;SDS011;40978;52.850;6.506;2023-02-15T17:01:00;40.58;;;28.20;;
55082;SDS011;40978;52.850;6.506;2023-02-15T17:03:44;39.97;;;28.40;;
55082;SDS011;40978;52.850;6.506;2023-02-15T17:06:42;35.75;;;26.13;;
55082;SDS011;40978;52.850;6.506;2023-02-15T17:09:50;38.42;;;26.67;;
55082;SDS011;40978;52.850;6.506;2023-02-15T17:20:43;41.75;;;27.58;;
55082;SDS011;40978;52.850;6.506;2023-02-15T17:23:21;42.15;;;28.25;;
55082;SDS011;40978;52.850;6.506;2023-02-15T17:25:51;37.58;;;26.02;;
55082;SDS011;40978;52.850;6.506;2023-02-15T17:28:21;41.05;;;27.30;;
55082;SDS011;40978;52.850;6.506;2023-02-15T17:30:59;43.28;;;27.95;;
55082;SDS011;40978;52.850;6.506;2023-02-15T17:36:19;42.88;;;28.70;;
55082;SDS011;40978;52.850;6.506;2023-02-15T17:41:25;43.67;;;28.48;;
55082;SDS011;40978;52.850;6.506;2023-02-15T17:44:08;42.70;;;27.33;;
55082;SDS011;40978;52.850;6.506;2023-02-15T17:46:50;42.15;;;29.08;;
55082;SDS011;40978;52.850;6.506;2023-02-15T17:49:29;41.85;;;28.95;;
55082;SDS011;40978;52.850;6.506;2023-02-15T17:52:15;46.38;;;30.25;;
55082;SDS011;40978;52.850;6.506;2023-02-15T17:54:54;48.25;;;31.52;;
55082;SDS011;40978;52.850;6.506;2023-02-15T17:57:42;44.67;;;30.27;;
55082;SDS011;40978;52.850;6.506;2023-02-15T18:00:22;46.92;;;29.35;;
55082;SDS011;40978;52.850;6.506;2023-02-15T18:03:18;43.30;;;30.05;;
55082;SDS011;40978;52.850;6.506;2023-02-15T18:06:13;44.15;;;29.63;;
55082;SDS011;40978;52.850;6.506;2023-02-15T18:09:10;42.58;;;29.13;;
55082;SDS011;40978;52.850;6.506;2023-02-15T18:15:06;42.53;;;30.65;;
55082;SDS011;40978;52.850;6.506;2023-02-15T18:17:37;44.83;;;30.63;;
55082;SDS011;40978;52.850;6.506;2023-02-15T18:20:09;51.63;;;33.72;;
55082;SDS011;40978;52.850;6.506;2023-02-15T18:23:08;49.65;;;32.63;;
55082;SDS011;40978;52.850;6.506;2023-02-15T18:25:38;47.70;;;32.30;;
55082;SDS011;40978;52.850;6.506;2023-02-15T18:28:03;48.63;;;33.35;;
55082;SDS011;40978;52.850;6.506;2023-02-15T18:30:30;44.67;;;31.17;;
55082;SDS011;40978;52.850;6.506;2023-02-15T18:32:56;45.42;;;30.52;;
55082;SDS011;40978;52.850;6.506;2023-02-15T18:35:25;47.72;;;31.83;;
55082;SDS011;40978;52.850;6.506;2023-02-15T18:37:54;47.88;;;32.17;;
55082;SDS011;40978;52.850;6.506;2023-02-15T18:40:21;47.80;;;31.92;;